createdAt,value
2022-11-21T00:02:02.056Z,58.90
2022-11-21T00:04:31.053Z,62.50
2022-11-21T00:06:58.909Z,70.50
2022-11-21T00:09:26.818Z,62.10
2022-11-21T00:11:54.604Z,71.60
2022-11-21T00:14:22.412Z,71.20
2022-11-21T00:16:57.194Z,71.40
2022-11-21T00:19:25.907Z,74.30
2022-11-21T00:21:55.962Z,63.00
2022-11-21T00:24:23.756Z,58.20
2022-11-21T00:26:51.579Z,59.60
2022-11-21T00:29:20.892Z,60.60
2022-11-21T00:31:49.956Z,66.20
2022-11-21T00:34:17.907Z,63.70
2022-11-21T00:36:45.722Z,61.10
2022-11-21T00:39:13.487Z,62.90
2022-11-21T00:41:42.151Z,67.00
2022-11-21T00:44:10.184Z,66.70
2022-11-21T00:46:38.252Z,69.70
2022-11-21T00:49:06.063Z,74.60
2022-11-21T00:51:33.986Z,69.60
2022-11-21T00:54:02.056Z,69.30
2022-11-21T00:56:29.833Z,66.80
2022-11-21T00:58:57.684Z,64.10
2022-11-21T01:01:25.594Z,70.70
2022-11-21T01:03:53.412Z,69.50
2022-11-21T01:06:21.181Z,70.50
2022-11-21T01:08:48.948Z,61.60
2022-11-21T01:11:20.190Z,65.30
2022-11-21T01:13:49.004Z,62.50
2022-11-21T01:16:20.417Z,63.70
2022-11-21T01:18:49.109Z,66.10
2022-11-21T01:21:23.631Z,59.30
2022-11-21T01:23:51.930Z,55.30
2022-11-21T01:26:22.932Z,62.90
2022-11-21T01:28:51.220Z,63.70
2022-11-21T01:31:20.669Z,58.20
2022-11-21T01:33:49.572Z,62.40
2022-11-21T01:36:21.762Z,58.70
2022-11-21T01:38:52.962Z,62.30
2022-11-21T01:41:28.470Z,65.90
2022-11-21T01:43:56.400Z,58.30
2022-11-21T01:46:25.215Z,57.90
2022-11-21T01:48:59.681Z,56.50
2022-11-21T01:51:48.344Z,59.10
2022-11-21T01:54:25.046Z,58.90
2022-11-21T01:57:08.362Z,56.10
2022-11-21T01:59:48.363Z,56.30
2022-11-21T02:02:20.841Z,52.00
2022-11-21T02:04:50.172Z,53.30
2022-11-21T02:07:21.604Z,55.40
2022-11-21T02:09:57.917Z,55.90
2022-11-21T02:12:39.837Z,51.70
2022-11-21T02:15:08.398Z,54.90
2022-11-21T02:17:36.307Z,51.20
2022-11-21T02:20:10.370Z,47.70
2022-11-21T02:22:49.352Z,48.90
2022-11-21T02:25:46.639Z,48.00
2022-11-21T02:28:17.061Z,48.10
2022-11-21T02:30:45.344Z,47.10
2022-11-21T02:33:13.701Z,44.20
2022-11-21T02:35:42.549Z,49.00
2022-11-21T02:38:33.468Z,43.20
2022-11-21T02:41:15.681Z,50.50
2022-11-21T02:43:55.599Z,48.20
2022-11-21T02:46:23.554Z,50.70
2022-11-21T02:48:51.314Z,50.70
2022-11-21T02:51:19.188Z,47.40
2022-11-21T02:53:47.077Z,50.20
2022-11-21T02:56:15.032Z,50.10
2022-11-21T02:58:43.520Z,48.30
2022-11-21T03:01:11.518Z,46.00
2022-11-21T03:03:39.422Z,43.40
2022-11-21T03:06:07.291Z,42.40
2022-11-21T03:08:35.147Z,41.10
2022-11-21T03:11:03.017Z,44.30
2022-11-21T03:13:30.904Z,41.50
2022-11-21T03:15:59.713Z,42.40
2022-11-21T03:18:27.690Z,40.60
2022-11-21T03:20:55.539Z,43.90
2022-11-21T03:23:23.399Z,41.40
2022-11-21T03:25:51.217Z,41.10
2022-11-21T03:28:19.497Z,39.40
2022-11-21T03:30:47.432Z,39.20
2022-11-21T03:33:15.257Z,37.50
2022-11-21T03:35:43.031Z,39.90
2022-11-21T03:38:10.763Z,38.10
2022-11-21T03:40:38.645Z,35.60
2022-11-21T03:43:07.789Z,39.80
2022-11-21T03:45:35.507Z,40.60
2022-11-21T03:48:03.500Z,38.30
2022-11-21T03:50:31.230Z,39.60
2022-11-21T03:52:58.923Z,37.10
2022-11-21T03:55:27.302Z,38.60
2022-11-21T03:57:55.007Z,38.50
2022-11-21T04:00:23.614Z,44.50
2022-11-21T04:02:51.400Z,49.10
2022-11-21T04:05:19.213Z,52.50
2022-11-21T04:07:47.007Z,50.40
2022-11-21T04:10:15.071Z,45.30
2022-11-21T04:12:45.232Z,43.60
2022-11-21T04:15:14.009Z,44.40
2022-11-21T04:17:42.876Z,44.50
2022-11-21T04:20:11.262Z,46.70
2022-11-21T04:22:39.073Z,48.90
2022-11-21T04:25:07.465Z,53.60
2022-11-21T04:27:35.204Z,65.10
2022-11-21T04:30:03.290Z,70.00
2022-11-21T04:32:31.007Z,84.30
2022-11-21T04:34:58.665Z,105.00
2022-11-21T04:37:26.412Z,96.00
2022-11-21T04:39:56.633Z,71.20
2022-11-21T04:42:24.596Z,67.40
2022-11-21T04:44:52.296Z,82.60
2022-11-21T04:47:20.009Z,81.10
2022-11-21T04:49:47.890Z,68.40
2022-11-21T04:52:15.617Z,63.00
2022-11-21T04:54:43.454Z,57.60
2022-11-21T04:57:11.228Z,61.00
2022-11-21T04:59:38.928Z,60.20
2022-11-21T05:02:06.588Z,57.10
2022-11-21T05:04:34.950Z,56.50
2022-11-21T05:07:02.764Z,55.80
2022-11-21T05:09:30.488Z,50.90
2022-11-21T05:12:16.656Z,51.10
2022-11-21T05:14:44.579Z,53.30
2022-11-21T05:17:12.369Z,52.00
2022-11-21T05:19:40.157Z,57.40
2022-11-21T05:22:08.238Z,54.20
2022-11-21T05:24:36.377Z,55.00
2022-11-21T05:27:05.543Z,56.40
2022-11-21T05:29:33.692Z,56.40
2022-11-21T05:32:01.573Z,56.70
2022-11-21T05:34:29.936Z,49.90
2022-11-21T05:37:00.692Z,52.60
2022-11-21T05:39:29.118Z,52.10
2022-11-21T05:42:02.504Z,57.20
2022-11-21T05:44:31.280Z,59.60
2022-11-21T05:46:59.564Z,62.40
2022-11-21T05:49:27.772Z,64.50
2022-11-21T05:51:55.762Z,68.50
2022-11-21T05:54:24.368Z,61.30
2022-11-21T05:56:52.309Z,56.90
2022-11-21T05:59:20.760Z,49.30
2022-11-21T06:02:07.774Z,51.70
2022-11-21T06:04:35.825Z,49.60
2022-11-21T06:07:05.900Z,65.50
2022-11-21T06:09:33.924Z,68.90
2022-11-21T06:12:01.792Z,81.40
2022-11-21T06:14:29.737Z,84.00
2022-11-21T06:16:57.861Z,56.70
2022-11-21T06:19:25.788Z,64.30
2022-11-21T06:21:53.544Z,85.50
2022-11-21T06:24:22.497Z,59.00
2022-11-21T06:26:50.436Z,49.80
2022-11-21T06:29:18.252Z,54.20
2022-11-21T06:31:45.951Z,60.70
2022-11-21T06:34:13.752Z,72.10
2022-11-21T06:36:41.568Z,62.30
2022-11-21T06:39:09.352Z,69.70
2022-11-21T06:41:37.036Z,77.20
2022-11-21T06:44:04.957Z,73.20
2022-11-21T06:46:32.689Z,77.70
2022-11-21T06:49:00.623Z,67.50
2022-11-21T06:51:28.533Z,68.10
2022-11-21T06:53:59.494Z,65.50
2022-11-21T06:56:30.051Z,66.10
2022-11-21T06:58:58.749Z,53.90
2022-11-21T07:01:26.870Z,62.90
2022-11-21T07:03:55.118Z,60.40
2022-11-21T07:06:24.771Z,45.90
2022-11-21T07:09:25.205Z,52.50
2022-11-21T07:11:46.995Z,51.30
2022-11-21T07:14:15.235Z,51.60
2022-11-21T07:16:42.904Z,50.00
2022-11-21T07:19:10.755Z,48.00
2022-11-21T07:21:38.697Z,56.40
2022-11-21T07:24:06.633Z,49.90
2022-11-21T07:26:34.372Z,40.40
2022-11-21T07:29:02.469Z,29.50
2022-11-21T07:31:30.223Z,59.10
2022-11-21T07:33:58.239Z,55.50
2022-11-21T07:36:26.149Z,47.40
2022-11-21T07:38:53.879Z,46.50
2022-11-21T07:41:21.647Z,40.80
2022-11-21T07:43:49.419Z,60.30
2022-11-21T07:46:19.586Z,58.40
2022-11-21T07:48:47.629Z,56.30
2022-11-21T07:51:16.181Z,56.50
2022-11-21T07:53:44.208Z,55.20
2022-11-21T07:56:15.380Z,59.70
2022-11-21T07:58:43.498Z,68.90
2022-11-21T08:01:11.553Z,60.90
2022-11-21T08:03:39.435Z,58.40
2022-11-21T08:06:07.824Z,56.20
2022-11-21T08:08:35.726Z,39.50
2022-11-21T08:11:07.652Z,61.30
2022-11-21T08:13:35.548Z,59.20
2022-11-21T08:16:04.390Z,53.40
2022-11-21T08:18:34.106Z,52.60
2022-11-21T08:21:03.647Z,66.60
2022-11-21T08:23:32.458Z,65.40
2022-11-21T08:26:00.459Z,75.30
2022-11-21T08:28:28.357Z,75.00
2022-11-21T08:30:56.314Z,77.90
2022-11-21T08:33:24.137Z,77.50
2022-11-21T08:35:51.969Z,75.90
2022-11-21T08:38:19.939Z,82.10
2022-11-21T08:40:47.668Z,65.10
2022-11-21T08:43:15.516Z,73.80
2022-11-21T08:45:43.788Z,79.30
2022-11-21T08:48:11.915Z,81.00
2022-11-21T08:50:39.995Z,82.40
2022-11-21T08:53:07.731Z,77.70
2022-11-21T08:55:35.745Z,75.80
2022-11-21T08:58:03.818Z,80.40
2022-11-21T09:00:31.598Z,77.40
2022-11-21T09:02:59.383Z,71.10
2022-11-21T09:05:27.290Z,73.20
2022-11-21T09:07:58.483Z,66.30
2022-11-21T09:10:27.138Z,80.20
2022-11-21T09:12:59.549Z,74.20
2022-11-21T09:15:45.998Z,72.60
2022-11-21T09:18:14.552Z,77.70
2022-11-21T09:20:44.883Z,70.30
2022-11-21T09:23:16.752Z,69.80
2022-11-21T09:25:45.400Z,74.90
2022-11-21T09:28:14.030Z,79.30
2022-11-21T09:30:42.468Z,75.00
2022-11-21T09:33:13.181Z,73.90
2022-11-21T09:35:41.205Z,61.40
2022-11-21T09:38:09.742Z,70.30
2022-11-21T09:40:44.823Z,73.00
2022-11-21T09:43:41.710Z,70.20
2022-11-21T09:46:13.049Z,77.10
2022-11-21T09:49:05.099Z,74.10
2022-11-21T09:51:37.547Z,79.60
2022-11-21T09:54:17.466Z,73.20
2022-11-21T09:56:47.699Z,72.00
2022-11-21T09:59:35.542Z,71.50
2022-11-21T10:02:15.891Z,69.60
2022-11-21T10:04:49.012Z,69.90
2022-11-21T10:07:19.455Z,68.50
2022-11-21T10:09:59.475Z,67.50
2022-11-21T10:12:59.132Z,69.20
2022-11-21T10:15:26.963Z,60.40
2022-11-21T10:18:24.306Z,64.20
2022-11-21T10:21:13.719Z,69.40
2022-11-21T10:24:26.884Z,74.20
2022-11-21T10:27:00.934Z,68.30
2022-11-21T10:29:35.757Z,73.30
2022-11-21T10:32:22.503Z,66.20
2022-11-21T10:34:53.259Z,59.00
2022-11-21T10:37:33.096Z,61.30
2022-11-21T10:40:28.681Z,64.50
2022-11-21T10:43:22.093Z,68.20
2022-11-21T10:45:50.688Z,67.60
2022-11-21T10:48:19.125Z,71.60
2022-11-21T10:51:06.200Z,67.90
2022-11-21T10:53:52.799Z,69.50
2022-11-21T10:56:23.275Z,82.10
2022-11-21T10:58:53.740Z,72.20
2022-11-21T11:01:34.152Z,68.90
2022-11-21T11:07:20.384Z,70.90
2022-11-21T11:09:48.575Z,66.40
2022-11-21T11:12:50.353Z,67.40
2022-11-21T11:15:24.534Z,72.50
2022-11-21T11:17:59.156Z,84.10
2022-11-21T11:20:41.731Z,83.10
2022-11-21T11:23:27.941Z,77.00
2022-11-21T11:26:39.297Z,77.60
2022-11-21T11:29:17.804Z,70.30
2022-11-21T11:31:55.519Z,71.30
2022-11-21T11:34:26.923Z,68.20
2022-11-21T11:37:11.126Z,67.40
2022-11-21T11:40:03.773Z,72.60
2022-11-21T11:43:12.407Z,78.10
2022-11-21T11:46:10.457Z,71.80
2022-11-21T11:49:11.030Z,72.40
2022-11-21T11:51:41.433Z,72.30
2022-11-21T11:54:23.609Z,65.90
2022-11-21T11:56:51.816Z,72.40
2022-11-21T11:59:35.172Z,77.10
2022-11-21T12:02:24.623Z,76.40
2022-11-21T12:05:20.778Z,72.20
2022-11-21T12:08:40.079Z,75.30
2022-11-21T12:11:15.726Z,75.40
2022-11-21T12:13:44.282Z,72.40
2022-11-21T12:16:16.377Z,73.10
2022-11-21T12:18:54.130Z,70.40
2022-11-21T12:21:23.648Z,72.30
2022-11-21T12:23:56.898Z,81.70
2022-11-21T12:26:38.105Z,86.40
2022-11-21T12:29:11.067Z,86.60
2022-11-21T12:31:47.249Z,80.20
2022-11-21T12:34:36.715Z,76.40
2022-11-21T12:37:10.233Z,78.00
2022-11-21T12:40:08.967Z,81.50
2022-11-21T12:42:50.802Z,75.70
2022-11-21T12:45:18.792Z,74.60
2022-11-21T12:48:29.748Z,85.70
2022-11-21T12:51:34.586Z,85.30
2022-11-21T12:54:30.602Z,92.50
2022-11-21T12:57:14.025Z,88.00
2022-11-21T12:59:52.294Z,84.50
2022-11-21T13:02:57.697Z,87.00
2022-11-21T13:05:30.575Z,89.00
2022-11-21T13:08:03.782Z,96.00
2022-11-21T13:10:32.435Z,95.90
2022-11-21T13:13:20.371Z,93.70
2022-11-21T13:16:10.635Z,91.50
2022-11-21T13:18:48.943Z,91.40
2022-11-21T13:21:41.736Z,93.80
2022-11-21T13:24:10.296Z,93.50
2022-11-21T13:26:38.561Z,90.60
2022-11-21T13:29:10.245Z,96.40
2022-11-21T13:31:40.877Z,91.50
2022-11-21T13:34:32.304Z,101.90
2022-11-21T13:37:00.469Z,98.90
2022-11-21T13:39:31.606Z,99.90
2022-11-21T13:42:23.068Z,105.30
2022-11-21T13:44:51.389Z,105.30
2022-11-21T13:47:26.405Z,104.10
2022-11-21T13:50:25.293Z,92.70
2022-11-21T13:53:02.757Z,100.80
2022-11-21T13:55:47.044Z,90.30
2022-11-21T13:58:29.800Z,103.30
2022-11-21T14:01:19.906Z,100.30
2022-11-21T14:04:21.301Z,121.60
2022-11-21T14:06:49.664Z,98.40
2022-11-21T14:09:49.329Z,107.00
2022-11-21T14:12:33.864Z,115.30
2022-11-21T14:15:03.924Z,114.50
2022-11-21T14:17:47.304Z,112.90
2022-11-21T14:20:21.163Z,105.10
2022-11-21T14:22:59.050Z,104.50
2022-11-21T14:26:11.999Z,99.10
2022-11-21T14:28:39.817Z,108.40
2022-11-21T14:31:10.707Z,106.10
2022-11-21T14:33:41.330Z,105.00
2022-11-21T14:36:22.335Z,98.60
2022-11-21T14:39:35.214Z,104.60
2022-11-21T14:41:52.702Z,103.80
2022-11-21T14:44:22.023Z,105.10
2022-11-21T14:46:51.798Z,106.30
2022-11-21T14:49:22.405Z,103.00
2022-11-21T14:51:50.440Z,95.20
2022-11-21T14:54:25.998Z,97.60
2022-11-21T14:57:05.172Z,98.40
2022-11-21T14:59:41.974Z,97.60
2022-11-21T15:02:19.872Z,95.40
2022-11-21T15:04:54.053Z,100.70
2022-11-21T15:07:36.287Z,91.90
2022-11-21T15:13:16.156Z,97.80
2022-11-21T15:15:51.469Z,96.00
2022-11-21T15:18:27.786Z,91.90
2022-11-21T15:21:00.447Z,87.00
2022-11-21T15:23:34.290Z,92.10
2022-11-21T15:26:02.621Z,92.00
2022-11-21T15:28:31.910Z,105.30
2022-11-21T15:31:19.924Z,91.90
2022-11-21T15:34:19.637Z,100.00
2022-11-21T15:37:03.879Z,94.90
2022-11-21T15:39:33.543Z,87.50
2022-11-21T15:42:32.644Z,93.00
2022-11-21T15:45:03.568Z,85.30
2022-11-21T15:47:32.034Z,89.80
2022-11-21T15:50:00.356Z,91.40
2022-11-21T15:52:29.612Z,93.70
2022-11-21T15:55:01.472Z,96.60
2022-11-21T15:57:29.636Z,92.30
2022-11-21T15:59:57.873Z,91.60
2022-11-21T16:02:28.554Z,93.90
2022-11-21T16:04:56.688Z,98.10
2022-11-21T16:07:24.821Z,101.20
2022-11-21T16:09:53.154Z,93.70
2022-11-21T16:12:21.598Z,95.20
2022-11-21T16:14:49.653Z,99.30
2022-11-21T16:17:17.859Z,98.50
2022-11-21T16:19:46.144Z,105.80
2022-11-21T16:22:16.948Z,104.50
2022-11-21T16:24:45.072Z,101.70
2022-11-21T16:27:13.749Z,96.50
2022-11-21T16:29:47.710Z,99.70
2022-11-21T16:32:16.931Z,97.40
2022-11-21T16:34:45.353Z,99.40
2022-11-21T16:37:14.477Z,99.70
2022-11-21T16:39:42.459Z,94.80
2022-11-21T16:42:11.633Z,103.60
2022-11-21T16:44:40.155Z,99.40
2022-11-21T16:47:08.806Z,99.00
2022-11-21T16:49:43.059Z,99.90
2022-11-21T16:52:11.808Z,99.00
2022-11-21T16:54:40.938Z,107.70
2022-11-21T16:57:10.164Z,102.90
2022-11-21T16:59:38.485Z,96.70
2022-11-21T17:02:07.497Z,101.70
2022-11-21T17:04:39.790Z,92.90
2022-11-21T17:07:08.241Z,102.40
2022-11-21T17:09:36.676Z,102.60
2022-11-21T17:12:05.160Z,103.10
2022-11-21T17:14:34.149Z,107.40
2022-11-21T17:17:02.683Z,106.50
2022-11-21T17:19:31.033Z,114.80
2022-11-21T17:22:00.381Z,111.00
2022-11-21T17:24:29.251Z,113.90
2022-11-21T17:27:01.172Z,115.70
2022-11-21T17:29:31.414Z,116.60
2022-11-21T17:31:59.906Z,129.60
2022-11-21T17:34:33.067Z,118.60
2022-11-21T17:37:02.071Z,117.60
2022-11-21T17:39:30.575Z,128.30
2022-11-21T17:42:00.154Z,119.50
2022-11-21T17:44:28.991Z,124.10
2022-11-21T17:46:59.530Z,112.70
2022-11-21T17:49:30.669Z,119.10
2022-11-21T17:51:59.484Z,113.00
2022-11-21T17:54:28.039Z,119.40
2022-11-21T17:56:57.243Z,138.50
2022-11-21T17:59:30.723Z,150.80
2022-11-21T18:02:00.810Z,172.20
2022-11-21T18:04:34.890Z,158.00
2022-11-21T18:07:03.921Z,129.90
2022-11-21T18:09:32.938Z,124.10
2022-11-21T18:12:01.589Z,116.80
2022-11-21T18:14:30.014Z,115.30
2022-11-21T18:16:58.041Z,115.10
2022-11-21T18:19:26.978Z,119.80
2022-11-21T18:21:55.880Z,119.90
2022-11-21T18:24:24.272Z,113.80
2022-11-21T18:26:53.280Z,117.30
2022-11-21T18:29:38.463Z,115.80
2022-11-21T18:32:08.440Z,71.10
2022-11-21T18:34:36.538Z,109.00
2022-11-21T18:37:07.085Z,99.80
2022-11-21T18:39:36.980Z,53.70
2022-11-21T18:42:06.605Z,38.40
2022-11-21T18:44:35.489Z,44.80
2022-11-21T18:47:19.407Z,49.20
2022-11-21T18:49:48.851Z,50.80
2022-11-21T18:52:16.930Z,50.90
2022-11-21T18:54:45.391Z,59.80
2022-11-21T18:57:13.686Z,57.80
2022-11-21T18:59:42.232Z,65.20
2022-11-21T19:02:10.887Z,61.40
2022-11-21T19:04:40.126Z,57.50
2022-11-21T19:07:08.760Z,56.10
2022-11-21T19:09:38.412Z,50.90
2022-11-21T19:12:07.033Z,41.80
2022-11-21T19:14:35.988Z,43.40
2022-11-21T19:17:04.517Z,36.60
2022-11-21T19:19:34.720Z,36.90
2022-11-21T19:22:06.164Z,44.30
2022-11-21T19:24:34.709Z,53.70
2022-11-21T19:27:03.937Z,51.40
2022-11-21T19:29:33.514Z,58.90
2022-11-21T19:32:02.230Z,54.90
2022-11-21T19:34:31.063Z,49.30
2022-11-21T19:36:59.735Z,57.40
2022-11-21T19:39:29.913Z,61.10
2022-11-21T19:41:59.528Z,60.90
2022-11-21T19:44:28.781Z,55.60
2022-11-21T19:46:56.769Z,71.50
2022-11-21T19:49:25.183Z,75.10
2022-11-21T19:51:55.239Z,80.40
2022-11-21T19:54:23.494Z,82.80
2022-11-21T19:56:53.045Z,80.30
2022-11-21T19:59:22.717Z,81.50
2022-11-21T20:01:53.283Z,78.80
2022-11-21T20:04:22.529Z,87.70
2022-11-21T20:06:51.069Z,85.00
2022-11-21T20:09:24.606Z,81.40
2022-11-21T20:11:54.197Z,82.80
2022-11-21T20:14:23.186Z,80.20
2022-11-21T20:16:53.363Z,79.40
2022-11-21T20:19:24.785Z,76.40
2022-11-21T20:21:55.154Z,77.20
2022-11-21T20:24:23.346Z,44.80
2022-11-21T20:26:54.150Z,43.60
2022-11-21T20:29:22.615Z,39.40
2022-11-21T20:31:51.192Z,40.60
2022-11-21T20:34:19.575Z,39.10
2022-11-21T20:36:48.085Z,41.50
2022-11-21T20:39:18.375Z,38.00
2022-11-21T20:41:47.194Z,37.60
2022-11-21T20:45:20.166Z,40.70
2022-11-21T20:47:12.442Z,42.00
2022-11-21T20:49:40.794Z,44.90
2022-11-21T20:54:58.510Z,57.80
2022-11-21T20:57:27.858Z,54.60
2022-11-21T20:59:57.073Z,65.50
2022-11-21T21:02:26.588Z,66.70
2022-11-21T21:04:55.254Z,63.60
2022-11-21T21:07:24.006Z,60.00
2022-11-21T21:09:53.673Z,57.40
2022-11-21T21:12:24.086Z,50.10
2022-11-21T21:14:52.011Z,54.70
2022-11-21T21:17:20.618Z,52.20
2022-11-21T21:19:49.073Z,50.00
2022-11-21T21:22:17.584Z,53.80
2022-11-21T21:24:46.222Z,59.30
2022-11-21T21:27:14.858Z,59.60
2022-11-21T21:29:43.554Z,54.90
2022-11-21T21:32:11.802Z,58.10
2022-11-21T21:34:41.284Z,53.60
2022-11-21T21:37:11.001Z,54.60
2022-11-21T21:39:39.630Z,60.00
2022-11-21T21:42:08.061Z,60.80
2022-11-21T21:44:39.344Z,58.00
2022-11-21T21:47:11.230Z,56.10
2022-11-21T21:49:39.357Z,68.30
2022-11-21T21:52:07.886Z,65.20
2022-11-21T21:54:36.195Z,68.90
2022-11-21T21:57:04.495Z,76.70
2022-11-21T21:59:35.947Z,77.10
2022-11-21T22:02:04.645Z,80.00
2022-11-21T22:04:34.086Z,87.50
2022-11-21T22:07:05.541Z,82.10
2022-11-21T22:09:34.229Z,71.20
2022-11-21T22:12:02.721Z,71.00
2022-11-21T22:14:31.936Z,62.20
2022-11-21T22:17:00.342Z,58.70
2022-11-21T22:19:29.654Z,56.70
2022-11-21T22:21:58.065Z,54.10
2022-11-21T22:24:28.346Z,53.40
2022-11-21T22:26:56.624Z,49.60
2022-11-21T22:29:24.827Z,46.90
2022-11-21T22:31:53.411Z,47.20
2022-11-21T22:34:22.402Z,49.20
2022-11-21T22:36:50.367Z,46.80
2022-11-21T22:39:18.898Z,54.70
2022-11-21T22:41:47.037Z,57.50
2022-11-21T22:44:15.882Z,55.30
2022-11-21T22:46:44.036Z,57.70
2022-11-21T22:49:12.108Z,60.30
2022-11-21T22:51:40.144Z,52.50
2022-11-21T22:54:07.995Z,64.10
2022-11-21T22:56:35.757Z,52.20
2022-11-21T22:59:03.494Z,58.30
2022-11-21T23:01:33.328Z,55.60
2022-11-21T23:04:01.572Z,57.60
2022-11-21T23:06:29.877Z,55.30
2022-11-21T23:08:58.038Z,52.80
2022-11-21T23:11:28.422Z,56.40
2022-11-21T23:13:56.828Z,56.00
2022-11-21T23:16:26.052Z,59.40
2022-11-21T23:18:55.533Z,59.80
2022-11-21T23:21:23.742Z,51.30
2022-11-21T23:23:51.865Z,53.80
2022-11-21T23:26:20.392Z,57.40
2022-11-21T23:28:48.519Z,58.60
2022-11-21T23:31:17.187Z,55.10
2022-11-21T23:33:45.476Z,53.60
2022-11-21T23:36:13.409Z,56.10
2022-11-21T23:38:41.384Z,56.50
2022-11-21T23:41:09.216Z,59.20
2022-11-21T23:43:36.998Z,57.80
2022-11-21T23:46:04.772Z,55.90
2022-11-21T23:48:35.505Z,58.50
2022-11-21T23:51:03.246Z,58.70
2022-11-21T23:53:33.352Z,60.60
2022-11-21T23:56:01.237Z,57.70
2022-11-21T23:58:28.987Z,59.70
